createdAt,value
2019-05-18T00:00:45.354Z,99.90
2019-05-18T00:03:13.249Z,99.90
2019-05-18T00:05:41.147Z,99.90
2019-05-18T00:08:09.406Z,99.90
2019-05-18T00:10:37.313Z,99.90
2019-05-18T00:13:05.376Z,99.90
2019-05-18T00:15:33.382Z,99.90
2019-05-18T00:18:01.308Z,99.90
2019-05-18T00:20:29.340Z,99.90
2019-05-18T00:22:57.414Z,99.90
2019-05-18T00:25:25.521Z,99.90
2019-05-18T00:27:53.458Z,99.90
2019-05-18T00:30:21.407Z,99.90
2019-05-18T00:32:49.449Z,99.90
2019-05-18T00:35:17.592Z,99.90
2019-05-18T00:37:45.568Z,99.90
2019-05-18T00:40:13.691Z,99.90
2019-05-18T00:42:41.600Z,99.90
2019-05-18T00:45:10.131Z,99.90
2019-05-18T00:47:41.913Z,99.90
2019-05-18T00:50:08.888Z,99.90
2019-05-18T00:52:36.889Z,99.90
2019-05-18T00:55:06.002Z,99.90
2019-05-18T00:57:34.022Z,99.90
2019-05-18T01:00:02.130Z,99.90
2019-05-18T01:02:30.036Z,99.90
2019-05-18T01:04:57.984Z,99.90
2019-05-18T01:07:25.968Z,99.90
2019-05-18T01:09:53.975Z,99.90
2019-05-18T01:12:21.820Z,99.90
2019-05-18T01:14:49.820Z,99.90
2019-05-18T01:17:17.744Z,99.90
2019-05-18T01:19:45.674Z,99.90
2019-05-18T01:22:13.600Z,99.90
2019-05-18T01:24:41.788Z,99.90
2019-05-18T01:27:10.062Z,99.90
2019-05-18T01:29:37.949Z,99.90
2019-05-18T01:32:05.889Z,99.90
2019-05-18T01:34:33.806Z,99.90
2019-05-18T01:37:01.712Z,99.90
2019-05-18T01:39:29.607Z,99.90
2019-05-18T01:41:57.468Z,99.90
2019-05-18T01:44:25.419Z,99.90
2019-05-18T01:46:53.339Z,99.90
2019-05-18T01:49:21.377Z,99.90
2019-05-18T01:51:49.210Z,99.90
2019-05-18T01:54:17.115Z,99.90
2019-05-18T01:56:45.003Z,99.90
2019-05-18T01:59:13.116Z,99.90
2019-05-18T02:01:41.290Z,99.90
2019-05-18T02:04:09.299Z,99.90
2019-05-18T02:06:37.219Z,99.90
2019-05-18T02:09:07.846Z,99.90
2019-05-18T02:11:35.899Z,99.90
2019-05-18T02:14:04.338Z,99.90
2019-05-18T02:16:32.230Z,99.90
2019-05-18T02:19:00.048Z,99.90
2019-05-18T02:21:27.936Z,99.90
2019-05-18T02:23:55.945Z,99.90
2019-05-18T02:26:23.823Z,99.90
2019-05-18T02:28:51.687Z,99.90
2019-05-18T02:31:19.671Z,99.90
2019-05-18T02:33:47.655Z,99.90
2019-05-18T02:36:15.495Z,99.90
2019-05-18T02:38:43.395Z,99.90
2019-05-18T02:41:11.336Z,99.90
2019-05-18T02:43:39.204Z,99.90
2019-05-18T02:46:07.149Z,99.90
2019-05-18T02:48:49.032Z,99.90
2019-05-18T02:51:05.209Z,99.90
2019-05-18T02:53:33.184Z,99.90
2019-05-18T02:56:01.294Z,99.90
2019-05-18T02:58:29.168Z,99.90
2019-05-18T03:00:57.140Z,99.90
2019-05-18T03:03:25.109Z,99.90
2019-05-18T03:05:52.964Z,99.90
2019-05-18T03:08:20.818Z,99.90
2019-05-18T03:10:48.778Z,99.90
2019-05-18T03:13:16.776Z,99.90
2019-05-18T03:15:44.623Z,99.90
2019-05-18T03:18:12.512Z,99.90
2019-05-18T03:20:40.779Z,99.90
2019-05-18T03:23:08.779Z,99.90
2019-05-18T03:25:36.680Z,99.90
2019-05-18T03:28:04.573Z,99.90
2019-05-18T03:30:32.908Z,99.90
2019-05-18T03:33:00.909Z,99.90
2019-05-18T03:35:29.062Z,99.90
2019-05-18T03:37:57.376Z,99.90
2019-05-18T03:40:25.272Z,99.90
2019-05-18T03:42:53.138Z,99.90
2019-05-18T03:45:21.123Z,99.90
2019-05-18T03:47:48.947Z,99.90
2019-05-18T03:50:16.873Z,99.90
2019-05-18T03:52:44.822Z,99.90
2019-05-18T03:55:12.886Z,99.90
2019-05-18T03:57:40.836Z,99.90
2019-05-18T04:00:09.205Z,99.90
2019-05-18T04:02:37.292Z,99.90
2019-05-18T04:05:05.326Z,99.90
2019-05-18T04:07:33.279Z,99.90
2019-05-18T04:10:01.161Z,99.90
2019-05-18T04:12:29.122Z,99.90
2019-05-18T04:14:57.114Z,99.90
2019-05-18T04:17:25.038Z,99.90
2019-05-18T04:19:52.871Z,99.90
2019-05-18T04:22:21.239Z,99.90
2019-05-18T04:24:49.442Z,99.90
2019-05-18T04:27:17.471Z,99.90
2019-05-18T04:29:45.670Z,99.90
2019-05-18T04:32:13.804Z,99.90
2019-05-18T04:34:41.737Z,99.90
2019-05-18T04:37:09.742Z,99.90
2019-05-18T04:39:37.690Z,99.90
2019-05-18T04:42:05.843Z,99.90
2019-05-18T04:44:33.675Z,99.90
2019-05-18T04:47:01.614Z,99.90
2019-05-18T04:49:29.587Z,99.90
2019-05-18T04:51:57.577Z,99.90
2019-05-18T04:54:25.437Z,99.90
2019-05-18T04:56:53.397Z,99.90
2019-05-18T04:59:21.313Z,99.90
2019-05-18T05:01:49.178Z,99.90
2019-05-18T05:04:17.110Z,99.90
2019-05-18T05:06:44.994Z,99.90
2019-05-18T05:09:13.229Z,99.90
2019-05-18T05:11:41.289Z,99.90
2019-05-18T05:14:09.264Z,99.90
2019-05-18T05:16:37.138Z,99.90
2019-05-18T05:19:08.507Z,99.90
2019-05-18T05:21:35.137Z,99.90
2019-05-18T05:24:03.066Z,99.90
2019-05-18T05:26:31.017Z,99.90
2019-05-18T05:28:59.375Z,99.90
2019-05-18T05:31:27.482Z,99.90
2019-05-18T05:33:56.148Z,99.90
2019-05-18T05:36:24.306Z,99.90
2019-05-18T05:38:52.315Z,99.90
2019-05-18T05:41:20.362Z,99.90
2019-05-18T05:43:49.158Z,99.90
2019-05-18T05:46:18.393Z,99.90
2019-05-18T05:48:46.444Z,99.90
2019-05-18T05:51:14.439Z,99.90
2019-05-18T05:53:42.339Z,99.90
2019-05-18T05:56:10.590Z,99.90
2019-05-18T05:58:38.582Z,99.90
2019-05-18T06:01:06.719Z,99.90
2019-05-18T06:03:34.607Z,99.90
2019-05-18T06:06:02.434Z,99.90
2019-05-18T06:08:30.330Z,99.90
2019-05-18T06:10:58.574Z,99.90
2019-05-18T06:13:26.625Z,99.90
2019-05-18T06:15:54.757Z,99.90
2019-05-18T06:18:22.844Z,99.90
2019-05-18T06:20:52.134Z,99.90
2019-05-18T06:23:21.343Z,99.90
2019-05-18T06:25:49.396Z,99.90
2019-05-18T06:28:17.662Z,99.90
2019-05-18T06:30:45.834Z,99.90
2019-05-18T06:33:13.841Z,99.90
2019-05-18T06:35:41.836Z,99.90
2019-05-18T06:38:10.325Z,99.90
2019-05-18T06:40:38.250Z,99.90
2019-05-18T06:43:09.142Z,99.90
2019-05-18T06:45:37.056Z,99.90
2019-05-18T06:48:05.062Z,99.90
2019-05-18T06:50:32.955Z,99.90
2019-05-18T06:53:00.855Z,99.90
2019-05-18T06:55:28.767Z,99.90
2019-05-18T06:57:57.395Z,99.90
2019-05-18T07:00:25.571Z,99.90
2019-05-18T07:02:53.596Z,99.90
2019-05-18T07:05:21.593Z,99.90
2019-05-18T07:07:49.659Z,99.90
2019-05-18T07:10:17.807Z,99.90
2019-05-18T07:12:45.889Z,99.90
2019-05-18T07:15:15.849Z,99.90
2019-05-18T07:17:43.925Z,99.90
2019-05-18T07:20:14.474Z,99.90
2019-05-18T07:22:42.450Z,99.90
2019-05-18T07:25:11.329Z,99.90
2019-05-18T07:27:39.581Z,99.90
2019-05-18T07:30:08.225Z,99.90
2019-05-18T07:32:42.134Z,99.90
2019-05-18T07:35:11.622Z,99.90
2019-05-18T07:37:39.556Z,99.90
2019-05-18T07:40:08.390Z,99.90
2019-05-18T07:42:36.414Z,99.90
2019-05-18T07:45:05.533Z,99.90
2019-05-18T07:47:33.535Z,99.90
2019-05-18T07:50:01.523Z,99.90
2019-05-18T07:52:29.373Z,99.90
2019-05-18T07:54:59.618Z,99.90
2019-05-18T07:57:27.989Z,99.90
2019-05-18T07:59:56.551Z,99.90
2019-05-18T08:02:24.530Z,99.90
2019-05-18T08:04:52.526Z,99.90
2019-05-18T08:07:20.480Z,99.90
2019-05-18T08:09:48.519Z,99.90
2019-05-18T08:12:17.085Z,99.90
2019-05-18T08:14:45.068Z,99.90
2019-05-18T08:17:12.965Z,99.90
2019-05-18T08:19:40.935Z,99.90
2019-05-18T08:22:08.919Z,99.90
2019-05-18T08:24:36.859Z,99.90
2019-05-18T08:27:04.843Z,99.90
2019-05-18T08:29:32.738Z,99.90
2019-05-18T08:32:00.743Z,99.90
2019-05-18T08:34:28.825Z,99.90
2019-05-18T08:36:56.910Z,99.90
2019-05-18T08:39:24.825Z,99.90
2019-05-18T08:41:52.878Z,99.90
2019-05-18T08:44:20.953Z,99.90
2019-05-18T08:46:49.183Z,99.90
2019-05-18T08:49:17.204Z,99.90
2019-05-18T08:51:45.095Z,99.90
2019-05-18T08:54:13.035Z,99.90
2019-05-18T08:56:41.057Z,99.90
2019-05-18T08:59:08.988Z,99.80
2019-05-18T09:01:37.136Z,98.00
2019-05-18T09:04:05.066Z,96.00
2019-05-18T09:06:33.372Z,98.70
2019-05-18T09:09:04.594Z,99.90
2019-05-18T09:11:33.112Z,99.90
2019-05-18T09:14:02.534Z,99.90
2019-05-18T09:16:30.707Z,99.90
2019-05-18T09:18:58.897Z,99.90
2019-05-18T09:21:27.168Z,99.90
2019-05-18T09:23:55.324Z,99.20
2019-05-18T09:26:23.519Z,96.80
2019-05-18T09:28:51.578Z,94.50
2019-05-18T09:31:19.865Z,94.20
2019-05-18T09:33:47.818Z,93.50
2019-05-18T09:36:15.878Z,92.70
2019-05-18T09:38:43.850Z,94.30
2019-05-18T09:41:12.440Z,91.80
2019-05-18T09:43:40.486Z,88.90
2019-05-18T09:46:08.773Z,91.60
2019-05-18T09:48:36.873Z,91.70
2019-05-18T09:51:04.804Z,88.60
2019-05-18T09:53:32.755Z,91.10
2019-05-18T09:56:00.976Z,91.00
2019-05-18T09:58:29.102Z,89.90
2019-05-18T10:00:57.199Z,88.40
2019-05-18T10:03:25.118Z,86.60
2019-05-18T10:05:53.004Z,86.20
2019-05-18T10:08:20.978Z,82.20
2019-05-18T10:10:49.111Z,78.90
2019-05-18T10:13:17.032Z,78.90
2019-05-18T10:15:45.050Z,78.40
2019-05-18T10:18:13.086Z,80.30
2019-05-18T10:20:41.195Z,78.70
2019-05-18T10:23:12.854Z,75.10
2019-05-18T10:25:39.018Z,75.50
2019-05-18T10:28:09.376Z,74.50
2019-05-18T10:30:37.571Z,74.40
2019-05-18T10:33:06.252Z,71.30
2019-05-18T10:35:34.330Z,68.00
2019-05-18T10:38:02.194Z,69.40
2019-05-18T10:40:30.239Z,67.10
2019-05-18T10:42:58.595Z,65.10
2019-05-18T10:45:26.891Z,66.20
2019-05-18T10:47:54.966Z,65.70
2019-05-18T10:50:22.928Z,65.60
2019-05-18T10:52:51.034Z,64.40
2019-05-18T10:55:19.149Z,63.30
2019-05-18T10:57:46.826Z,63.70
2019-05-18T11:00:16.824Z,63.10
2019-05-18T11:02:44.757Z,63.70
2019-05-18T11:05:15.044Z,63.50
2019-05-18T11:07:43.127Z,62.80
2019-05-18T11:10:11.962Z,64.70
2019-05-18T11:12:40.131Z,63.90
2019-05-18T11:15:12.543Z,64.30
2019-05-18T11:17:40.666Z,63.50
2019-05-18T11:20:10.235Z,62.40
2019-05-18T11:22:38.261Z,62.60
2019-05-18T11:25:06.274Z,62.80
2019-05-18T11:27:34.209Z,65.60
2019-05-18T11:30:02.911Z,64.60
2019-05-18T11:32:31.213Z,63.40
2019-05-18T11:34:59.217Z,63.70
2019-05-18T11:37:27.631Z,66.90
2019-05-18T11:39:55.898Z,66.80
2019-05-18T11:42:23.981Z,67.80
2019-05-18T11:44:51.998Z,66.60
2019-05-18T11:47:20.007Z,67.20
2019-05-18T11:49:48.497Z,68.50
2019-05-18T11:52:16.446Z,70.60
2019-05-18T11:54:44.408Z,70.90
2019-05-18T11:57:12.602Z,69.00
2019-05-18T11:59:40.574Z,67.20
2019-05-18T12:02:09.087Z,66.10
2019-05-18T12:04:37.164Z,64.30
2019-05-18T12:07:05.532Z,67.30
2019-05-18T12:09:33.778Z,65.30
2019-05-18T12:12:01.757Z,63.70
2019-05-18T12:14:29.615Z,62.60
2019-05-18T12:16:57.568Z,64.10
2019-05-18T12:19:25.588Z,65.00
2019-05-18T12:21:53.864Z,65.10
2019-05-18T12:24:22.108Z,67.50
2019-05-18T12:26:50.770Z,72.00
2019-05-18T12:29:18.970Z,71.00
2019-05-18T12:31:46.916Z,71.50
2019-05-18T12:34:15.220Z,70.50
2019-05-18T12:36:43.144Z,68.00
2019-05-18T12:39:11.351Z,68.70
2019-05-18T12:41:39.421Z,68.30
2019-05-18T12:44:07.624Z,68.80
2019-05-18T12:46:35.631Z,68.80
2019-05-18T12:49:03.700Z,68.50
2019-05-18T12:51:31.718Z,66.60
2019-05-18T12:53:59.724Z,64.70
2019-05-18T12:56:27.724Z,64.80
2019-05-18T12:58:55.711Z,65.10
2019-05-18T13:01:23.767Z,65.80
2019-05-18T13:03:51.717Z,63.70
2019-05-18T13:06:19.790Z,63.40
2019-05-18T13:08:48.136Z,63.60
2019-05-18T13:11:16.287Z,63.20
2019-05-18T13:13:44.510Z,64.40
2019-05-18T13:16:12.596Z,62.60
2019-05-18T13:18:41.296Z,62.60
2019-05-18T13:21:09.264Z,61.50
2019-05-18T13:23:37.211Z,61.50
2019-05-18T13:26:05.244Z,60.20
2019-05-18T13:28:33.192Z,61.10
2019-05-18T13:31:02.459Z,59.50
2019-05-18T13:33:31.092Z,54.10
2019-05-18T13:35:59.888Z,55.70
2019-05-18T13:38:28.066Z,53.70
2019-05-18T13:40:56.144Z,50.30
2019-05-18T13:43:24.331Z,51.70
2019-05-18T13:45:52.736Z,54.00
2019-05-18T13:48:20.965Z,52.20
2019-05-18T13:50:48.964Z,53.30
2019-05-18T13:53:16.968Z,54.80
2019-05-18T13:55:45.093Z,51.40
2019-05-18T13:58:13.230Z,51.50
2019-05-18T14:00:41.249Z,50.20
2019-05-18T14:03:09.223Z,50.20
2019-05-18T14:05:37.285Z,49.10
2019-05-18T14:08:05.142Z,49.70
2019-05-18T14:10:33.078Z,47.50
2019-05-18T14:13:01.109Z,44.40
2019-05-18T14:15:29.171Z,44.50
2019-05-18T14:17:57.562Z,44.80
2019-05-18T14:20:26.594Z,43.80
2019-05-18T14:22:54.843Z,47.60
2019-05-18T14:25:22.894Z,47.40
2019-05-18T14:27:50.794Z,47.00
2019-05-18T14:30:19.452Z,47.40
2019-05-18T14:32:47.618Z,45.40
2019-05-18T14:35:15.627Z,44.80
2019-05-18T14:37:43.781Z,41.20
2019-05-18T14:40:14.201Z,37.30
2019-05-18T14:42:42.230Z,40.20
2019-05-18T14:45:10.468Z,42.30
2019-05-18T14:47:38.674Z,33.70
2019-05-18T14:50:07.879Z,33.10
2019-05-18T14:52:36.113Z,34.80
2019-05-18T14:55:04.497Z,40.20
2019-05-18T14:57:33.651Z,45.70
2019-05-18T15:00:02.964Z,71.80
2019-05-18T15:02:31.841Z,66.60
2019-05-18T15:04:59.881Z,91.40
2019-05-18T15:07:29.031Z,89.00
2019-05-18T15:09:57.048Z,81.90
2019-05-18T15:12:26.581Z,96.20
2019-05-18T15:14:55.080Z,83.80
2019-05-18T15:17:24.497Z,87.20
2019-05-18T15:19:52.612Z,95.60
2019-05-18T15:22:20.595Z,90.40
2019-05-18T15:24:49.041Z,91.10
2019-05-18T15:27:17.077Z,85.80
2019-05-18T15:29:45.103Z,94.80
2019-05-18T15:32:13.622Z,98.30
2019-05-18T15:34:41.739Z,90.40
2019-05-18T15:37:09.898Z,99.90
2019-05-18T15:39:37.927Z,99.90
2019-05-18T15:42:05.887Z,99.90
2019-05-18T15:44:34.162Z,99.90
2019-05-18T15:47:02.692Z,99.90
2019-05-18T15:49:30.620Z,99.90
2019-05-18T15:51:58.840Z,99.90
2019-05-18T15:54:26.839Z,99.90
2019-05-18T15:56:54.890Z,99.90
2019-05-18T15:59:23.021Z,99.90
2019-05-18T16:01:51.453Z,99.90
2019-05-18T16:04:21.626Z,99.90
2019-05-18T16:06:51.602Z,99.90
2019-05-18T16:09:20.020Z,99.90
2019-05-18T16:11:48.087Z,99.90
2019-05-18T16:14:16.218Z,99.90
2019-05-18T16:16:44.527Z,99.90
2019-05-18T16:19:12.588Z,99.90
2019-05-18T16:21:40.593Z,99.90
2019-05-18T16:24:08.517Z,99.90
2019-05-18T16:26:37.016Z,99.90
2019-05-18T16:29:05.179Z,99.90
2019-05-18T16:31:33.095Z,99.90
2019-05-18T16:34:01.037Z,99.90
2019-05-18T16:36:29.006Z,99.90
2019-05-18T16:38:57.313Z,99.90
2019-05-18T16:41:25.670Z,99.90
2019-05-18T16:43:54.096Z,99.90
2019-05-18T16:46:22.259Z,99.90
2019-05-18T16:48:50.457Z,99.90
2019-05-18T16:51:18.471Z,99.90
2019-05-18T16:53:50.087Z,99.90
2019-05-18T16:56:16.394Z,99.90
2019-05-18T16:58:44.319Z,99.90
2019-05-18T17:01:12.348Z,99.90
2019-05-18T17:03:40.303Z,99.90
2019-05-18T17:06:08.746Z,99.90
2019-05-18T17:08:36.822Z,99.90
2019-05-18T17:11:04.991Z,99.90
2019-05-18T17:13:33.647Z,99.90
2019-05-18T17:16:01.794Z,99.90
2019-05-18T17:18:29.946Z,99.90
2019-05-18T17:20:58.069Z,99.90
2019-05-18T17:23:26.537Z,99.90
2019-05-18T17:25:55.033Z,99.90
2019-05-18T17:28:23.098Z,99.90
2019-05-18T17:30:51.227Z,99.90
2019-05-18T17:33:25.377Z,99.90
2019-05-18T17:36:00.493Z,99.90
2019-05-18T17:38:24.205Z,99.90
2019-05-18T17:40:52.452Z,99.90
2019-05-18T17:43:20.450Z,99.90
2019-05-18T17:45:48.521Z,99.90
2019-05-18T17:48:18.258Z,99.90
2019-05-18T17:50:46.582Z,99.90
2019-05-18T17:53:14.609Z,99.90
2019-05-18T17:55:42.980Z,99.90
2019-05-18T17:58:11.318Z,99.90
2019-05-18T18:00:39.566Z,99.90
2019-05-18T18:03:07.831Z,99.90
2019-05-18T18:05:36.263Z,99.90
2019-05-18T18:08:04.355Z,99.90
2019-05-18T18:10:32.723Z,99.90
2019-05-18T18:13:01.056Z,99.90
2019-05-18T18:15:29.061Z,99.90
2019-05-18T18:17:57.246Z,99.90
2019-05-18T18:20:26.419Z,99.90
2019-05-18T18:22:54.778Z,99.90
2019-05-18T18:25:22.949Z,99.90
2019-05-18T18:27:51.165Z,99.90
2019-05-18T18:30:19.331Z,99.90
2019-05-18T18:32:47.795Z,99.90
2019-05-18T18:35:16.214Z,99.90
2019-05-18T18:37:44.362Z,99.90
2019-05-18T18:40:12.696Z,99.90
2019-05-18T18:42:40.928Z,99.90
2019-05-18T18:45:09.530Z,99.90
2019-05-18T18:47:37.667Z,99.90
2019-05-18T18:50:05.988Z,99.90
2019-05-18T18:52:34.023Z,99.90
2019-05-18T18:55:02.527Z,99.90
2019-05-18T18:57:40.662Z,99.90
2019-05-18T19:00:00.920Z,99.90
2019-05-18T19:02:28.927Z,99.90
2019-05-18T19:04:56.989Z,99.90
2019-05-18T19:07:25.007Z,99.90
2019-05-18T19:09:53.286Z,99.90
2019-05-18T19:12:21.642Z,99.90
2019-05-18T19:14:49.771Z,99.90
2019-05-18T19:17:18.096Z,99.90
2019-05-18T19:19:46.068Z,99.90
2019-05-18T19:22:14.090Z,99.90
2019-05-18T19:24:42.176Z,99.90
2019-05-18T19:27:10.295Z,99.90
2019-05-18T19:29:38.223Z,99.90
2019-05-18T19:32:06.138Z,99.90
2019-05-18T19:34:34.226Z,99.90
2019-05-18T19:37:02.445Z,99.90
2019-05-18T19:39:30.494Z,99.90
2019-05-18T19:41:58.460Z,99.90
2019-05-18T19:44:26.589Z,99.90
2019-05-18T19:46:54.489Z,99.90
2019-05-18T19:49:22.557Z,99.90
2019-05-18T19:51:50.525Z,99.90
2019-05-18T19:54:18.566Z,99.90
2019-05-18T19:56:47.198Z,99.90
2019-05-18T19:59:15.528Z,99.90
2019-05-18T20:01:43.876Z,99.90
2019-05-18T20:04:12.173Z,99.90
2019-05-18T20:06:40.621Z,99.90
2019-05-18T20:09:08.711Z,99.90
2019-05-18T20:11:36.844Z,99.90
2019-05-18T20:14:05.337Z,99.90
2019-05-18T20:16:33.369Z,99.90
2019-05-18T20:19:01.366Z,99.90
2019-05-18T20:21:29.502Z,99.90
2019-05-18T20:23:57.890Z,99.90
2019-05-18T20:26:26.076Z,99.90
2019-05-18T20:28:56.552Z,99.90
2019-05-18T20:31:24.027Z,99.90
2019-05-18T20:33:52.010Z,99.90
2019-05-18T20:36:20.314Z,99.90
2019-05-18T20:38:48.218Z,99.90
2019-05-18T20:41:16.233Z,99.90
2019-05-18T20:43:44.353Z,99.90
2019-05-18T20:46:12.327Z,99.90
2019-05-18T20:48:40.420Z,99.90
2019-05-18T20:51:08.621Z,99.90
2019-05-18T20:53:37.050Z,99.90
2019-05-18T20:56:05.468Z,99.90
2019-05-18T20:58:40.184Z,99.90
2019-05-18T21:01:03.634Z,99.90
2019-05-18T21:03:31.686Z,99.90
2019-05-18T21:05:59.804Z,99.90
2019-05-18T21:08:27.928Z,99.90
2019-05-18T21:10:56.477Z,99.90
2019-05-18T21:13:24.642Z,99.90
2019-05-18T21:15:52.799Z,99.90
2019-05-18T21:18:21.288Z,99.90
2019-05-18T21:20:49.563Z,99.90
2019-05-18T21:23:18.390Z,99.90
2019-05-18T21:25:46.776Z,99.90
2019-05-18T21:28:14.899Z,99.90
2019-05-18T21:30:43.239Z,99.90
2019-05-18T21:33:11.738Z,99.90
2019-05-18T21:35:40.073Z,99.90
2019-05-18T21:38:08.762Z,99.90
2019-05-18T21:40:36.774Z,99.90
2019-05-18T21:43:05.858Z,99.90
2019-05-18T21:45:36.355Z,99.90
2019-05-18T21:48:04.938Z,99.90
2019-05-18T21:50:35.897Z,99.90
2019-05-18T21:53:04.334Z,99.90
2019-05-18T21:55:32.250Z,99.90
2019-05-18T21:58:00.347Z,99.90
2019-05-18T22:00:30.060Z,99.90
2019-05-18T22:02:58.109Z,99.90
2019-05-18T22:05:26.771Z,99.90
2019-05-18T22:07:57.780Z,99.90
2019-05-18T22:10:26.447Z,99.90
2019-05-18T22:12:54.501Z,99.90
2019-05-18T22:15:22.404Z,99.90
2019-05-18T22:18:02.371Z,99.90
2019-05-18T22:20:30.572Z,99.90
2019-05-18T22:22:58.958Z,99.90
2019-05-18T22:25:27.002Z,99.90
2019-05-18T22:27:55.007Z,99.90
2019-05-18T22:30:22.930Z,99.90
2019-05-18T22:32:50.988Z,99.90
2019-05-18T22:35:18.882Z,99.90
2019-05-18T22:37:46.975Z,99.90
2019-05-18T22:40:15.527Z,99.90
2019-05-18T22:42:43.834Z,99.90
2019-05-18T22:45:11.845Z,99.90
2019-05-18T22:47:39.888Z,99.90
2019-05-18T22:50:09.197Z,99.90
2019-05-18T22:52:37.522Z,99.90
2019-05-18T22:55:05.910Z,99.90
2019-05-18T22:57:34.077Z,99.90
2019-05-18T23:00:02.017Z,99.90
2019-05-18T23:02:30.058Z,99.90
2019-05-18T23:04:57.992Z,99.90
2019-05-18T23:07:26.015Z,99.90
2019-05-18T23:09:54.167Z,99.90
2019-05-18T23:12:22.115Z,99.90
2019-05-18T23:14:50.026Z,99.90
2019-05-18T23:17:18.130Z,99.90
2019-05-18T23:19:46.109Z,99.90
2019-05-18T23:22:14.218Z,99.90
2019-05-18T23:24:42.204Z,99.90
2019-05-18T23:27:10.492Z,99.90
2019-05-18T23:29:38.656Z,99.90
2019-05-18T23:32:06.891Z,99.90
2019-05-18T23:34:35.288Z,99.90
2019-05-18T23:37:03.771Z,99.90
2019-05-18T23:39:31.725Z,99.90
2019-05-18T23:41:59.794Z,99.90
2019-05-18T23:44:27.792Z,99.90
2019-05-18T23:46:56.780Z,99.90
2019-05-18T23:49:24.876Z,99.90
2019-05-18T23:51:52.886Z,99.90
2019-05-18T23:54:20.783Z,99.90
2019-05-18T23:56:48.829Z,99.90
2019-05-18T23:59:17.037Z,99.90
